Time;durP1;ratioP1;P1;durP2;ratioP2;P2;SDS_P1;SDS_P2;PMS_P1;PMS_P2;Temp;Humidity;BMP_temperature;BMP_pressure;BME280_temperature;BME280_humidity;BME280_pressure;Samples;Min_cycle;Max_cycle;Signal;HPM_P1;HPM_P2
2022/05/24 00:01:20;;;;;;;9.13;5.25;;;;;;;19.22;52.92;94477.16;5008557;28;20033;-77
2022/05/24 00:03:45;;;;;;;8.07;4.82;;;;;;;19.18;52.60;94477.72;5007868;28;20041;-77
2022/05/24 00:06:11;;;;;;;8.30;4.22;;;;;;;19.15;51.41;94473.06;5024548;28;20026;-77
2022/05/24 00:08:37;;;;;;;4.75;4.05;;;;;;;18.94;52.24;94479.00;4983970;28;20033;-78
2022/05/24 00:11:02;;;;;;;6.07;5.28;;;;;;;18.44;53.73;94474.31;5008401;28;20030;-77
2022/05/24 00:13:28;;;;;;;8.35;4.68;;;;;;;18.06;54.43;94472.81;5008196;28;20030;-76
2022/05/24 00:15:53;;;;;;;9.98;4.97;;;;;;;18.00;54.32;94480.00;4990849;28;20030;-77
2022/05/24 00:18:23;;;;;;;17.58;4.72;;;;;;;18.09;54.46;94477.50;5009386;28;20049;-77
2022/05/24 00:20:53;;;;;;;12.68;5.45;;;;;;;18.20;54.49;94484.16;4991950;28;20054;-77
2022/05/24 00:23:19;;;;;;;14.77;5.22;;;;;;;18.15;54.14;94494.78;4999681;28;20034;-77
2022/05/24 00:25:47;;;;;;;9.80;5.53;;;;;;;18.10;53.55;94490.38;5006945;28;20104;-77
2022/05/24 00:28:13;;;;;;;12.10;5.13;;;;;;;18.02;53.78;94498.91;5007000;28;20057;-77
2022/05/24 00:30:38;;;;;;;9.82;5.05;;;;;;;17.93;53.76;94496.16;5010237;28;20108;-78
2022/05/24 00:33:04;;;;;;;7.47;5.35;;;;;;;17.89;53.54;94492.50;4978709;28;20034;-77
2022/05/24 00:35:30;;;;;;;10.75;4.45;;;;;;;17.91;53.59;94493.03;5011305;28;20046;-77
2022/05/24 00:37:55;;;;;;;6.05;4.43;;;;;;;17.90;53.40;94491.47;5010404;28;20548;-77
2022/05/24 00:40:30;;;;;;;18.23;5.00;;;;;;;17.95;52.97;94488.75;5012272;28;20461;-77
2022/05/24 00:42:56;;;;;;;5.70;4.63;;;;;;;18.06;52.83;94493.84;5010915;28;20033;-77
2022/05/24 00:45:34;;;;;;;9.10;4.78;;;;;;;18.17;53.31;94493.41;5010065;28;20022;-77
2022/05/24 00:48:04;;;;;;;5.53;3.97;;;;;;;18.17;52.03;94503.16;5028415;28;20411;-77
2022/05/24 00:50:32;;;;;;;14.13;3.92;;;;;;;18.17;51.67;94503.16;5013852;28;20088;-76
2022/05/24 00:53:06;;;;;;;7.22;4.55;;;;;;;18.24;51.60;94495.69;5002378;28;20041;-77
2022/05/24 00:55:39;;;;;;;7.82;4.20;;;;;;;18.30;52.03;94503.22;5010519;28;20034;-77
2022/05/24 00:58:07;;;;;;;10.55;3.95;;;;;;;18.34;51.24;94506.06;4986809;28;20037;-77
2022/05/24 01:00:33;;;;;;;8.25;3.95;;;;;;;18.41;50.91;94506.50;4978437;28;20038;-78
2022/05/24 01:02:59;;;;;;;7.78;3.55;;;;;;;18.46;50.19;94508.25;5028309;28;20034;-77
2022/05/24 01:05:27;;;;;;;10.27;3.65;;;;;;;18.42;50.28;94513.31;5013713;28;20594;-77
2022/05/24 01:07:52;;;;;;;5.15;3.35;;;;;;;18.43;49.83;94508.84;5015523;28;20038;-76
2022/05/24 01:10:27;;;;;;;6.97;3.13;;;;;;;18.43;49.97;94511.47;5006238;28;20034;-78
2022/05/24 01:13:11;;;;;;;5.32;3.28;;;;;;;18.43;49.94;94504.34;5026486;28;20061;-77
2022/05/24 01:15:36;;;;;;;4.13;2.88;;;;;;;18.47;49.70;94507.19;5015346;28;20030;-78
2022/05/24 01:18:02;;;;;;;10.70;5.63;;;;;;;18.38;49.70;94499.13;4997044;28;20041;-77
2022/05/24 01:20:27;;;;;;;7.07;6.20;;;;;;;18.30;49.44;94505.06;4989366;28;20040;-78
2022/05/24 01:23:02;;;;;;;7.22;3.35;;;;;;;18.17;49.85;94505.78;5028594;28;20474;-78
2022/05/24 01:25:52;;;;;;;9.63;2.95;;;;;;;18.12;50.12;94505.88;5012377;28;20041;-78
2022/05/24 01:28:21;;;;;;;3.75;3.00;;;;;;;18.13;50.16;94496.91;5014438;28;20034;-78
2022/05/24 01:30:47;;;;;;;8.98;3.00;;;;;;;18.14;49.99;94495.84;5013662;28;20026;-78
2022/05/24 01:36:11;;;;;;;4.47;2.92;;;;;;;18.11;50.07;94480.63;5011883;28;20045;-77
2022/05/24 01:39:00;;;;;;;4.47;3.28;;;;;;;18.03;50.43;94481.28;5011824;28;20042;-77
2022/05/24 01:41:44;;;;;;;4.28;3.10;;;;;;;18.00;50.13;94496.56;4988346;28;20042;-77
2022/05/24 01:44:10;;;;;;;11.75;3.13;;;;;;;17.98;50.38;94488.19;4995536;28;20520;-79
2022/05/24 01:46:43;;;;;;;3.20;2.83;;;;;;;17.95;50.57;94493.25;5027148;28;20057;-79
2022/05/24 01:49:35;;;;;;;7.03;2.88;;;;;;;18.00;50.73;94496.56;4994300;28;20036;-76
2022/05/24 01:52:14;;;;;;;5.38;2.95;;;;;;;17.90;51.11;94490.69;4989747;28;20544;-77
2022/05/24 01:54:41;;;;;;;7.10;2.65;;;;;;;17.87;51.13;94497.28;5026961;28;20034;-77
2022/05/24 01:57:23;;;;;;;3.85;2.90;;;;;;;17.90;51.29;94495.94;5010791;28;20181;-78
2022/05/24 01:59:49;;;;;;;7.53;2.95;;;;;;;17.97;51.22;94505.03;4993828;28;20057;-77
2022/05/24 02:02:14;;;;;;;2.83;2.60;;;;;;;18.02;51.16;94501.53;5009999;28;20113;-77
2022/05/24 02:04:40;;;;;;;7.82;2.72;;;;;;;18.05;51.38;94513.34;5011436;28;20421;-77
2022/05/24 02:07:05;;;;;;;15.85;3.55;;;;;;;17.96;51.95;94514.00;5009858;28;20460;-77
2022/05/24 02:09:31;;;;;;;13.52;6.75;;;;;;;18.00;51.97;94507.09;5010190;28;20030;-77
2022/05/24 02:11:59;;;;;;;9.43;4.00;;;;;;;17.96;52.00;94500.84;5011036;28;20417;-77
2022/05/24 02:14:26;;;;;;;5.07;2.97;;;;;;;18.03;51.96;94511.00;5027960;28;20096;-77
2022/05/24 02:16:57;;;;;;;8.32;3.20;;;;;;;18.08;51.83;94518.06;4995364;28;20029;-77
2022/05/24 02:19:23;;;;;;;5.50;3.47;;;;;;;18.10;51.94;94515.91;5010128;28;20037;-78
2022/05/24 02:21:53;;;;;;;10.38;3.60;;;;;;;18.10;52.14;94515.91;4995013;28;20084;-77
2022/05/24 02:24:20;;;;;;;5.45;3.53;;;;;;;18.00;52.59;94507.09;5014141;28;20049;-77
2022/05/24 02:26:46;;;;;;;11.35;3.65;;;;;;;18.05;52.10;94494.91;4993157;28;20038;-79
2022/05/24 02:29:12;;;;;;;7.15;3.33;;;;;;;17.97;52.75;94480.56;4997526;28;20029;-78
2022/05/24 02:31:37;;;;;;;7.28;3.97;;;;;;;17.99;52.89;94471.31;5012603;28;20037;-78
2022/05/24 02:34:03;;;;;;;8.93;3.50;;;;;;;17.94;53.03;94476.66;4980714;28;20041;-78
2022/05/24 02:36:28;;;;;;;8.80;3.50;;;;;;;17.99;53.22;94495.00;5014747;28;20064;-78
2022/05/24 02:38:54;;;;;;;9.32;4.25;;;;;;;17.94;53.77;94524.03;5019498;28;20037;-78
2022/05/24 02:41:28;;;;;;;9.13;3.67;;;;;;;17.83;54.32;94525.22;5001008;28;20036;-78
2022/05/24 02:43:55;;;;;;;6.82;3.60;;;;;;;17.83;54.46;94527.06;5012467;28;20099;-78
2022/05/24 02:46:21;;;;;;;14.30;4.03;;;;;;;17.77;54.63;94531.63;5011740;28;20040;-78
2022/05/24 02:48:47;;;;;;;14.32;3.78;;;;;;;17.64;55.17;94529.66;5017372;28;20034;-78
2022/05/24 02:51:13;;;;;;;8.88;3.72;;;;;;;17.55;55.70;94536.59;4981349;28;20061;-78
2022/05/24 02:53:39;;;;;;;6.38;3.35;;;;;;;17.38;56.03;94522.06;5008777;28;20069;-78
2022/05/24 02:56:05;;;;;;;13.73;3.50;;;;;;;17.24;56.48;94521.16;5009799;28;20651;-78
2022/05/24 02:58:30;;;;;;;6.63;3.75;;;;;;;17.16;56.72;94518.38;5011547;28;20030;-78
2022/05/24 03:00:56;;;;;;;14.98;3.47;;;;;;;17.16;56.86;94526.28;5010537;28;20033;-78
2022/05/24 03:03:22;;;;;;;6.70;3.38;;;;;;;17.18;56.80;94527.56;5010274;28;20390;-78
2022/05/24 03:05:47;;;;;;;15.10;4.03;;;;;;;17.17;56.87;94533.88;4994385;28;20030;-78
2022/05/24 03:10:56;;;;;;;16.45;3.90;;;;;;;17.30;56.23;94525.31;5010708;28;20083;-79
2022/05/24 03:16:14;;;;;;;10.52;4.15;;;;;;;17.42;56.22;94530.19;5025006;28;20092;-78
2022/05/24 03:18:40;;;;;;;8.02;4.45;;;;;;;17.37;56.24;94524.97;5017064;28;20061;-78
2022/05/24 03:21:06;;;;;;;8.88;3.28;;;;;;;17.47;56.28;94534.59;5028230;28;20064;-78
2022/05/24 03:23:31;;;;;;;8.30;3.95;;;;;;;17.57;55.78;94529.19;5015813;28;20116;-79
2022/05/24 03:25:57;;;;;;;12.27;4.45;;;;;;;17.63;55.75;94515.72;5010978;28;20026;-78
2022/05/24 03:28:22;;;;;;;12.15;4.50;;;;;;;17.59;55.78;94516.59;5003092;28;20069;-78
2022/05/24 03:30:48;;;;;;;4.65;3.58;;;;;;;17.67;55.48;94511.47;5040886;28;20075;-78
2022/05/24 03:33:13;;;;;;;7.78;4.65;;;;;;;17.64;55.61;94513.88;5023602;28;20061;-77
2022/05/24 03:35:39;;;;;;;14.55;4.43;;;;;;;17.70;55.56;94523.28;5021023;28;20026;-78
2022/05/24 03:38:05;;;;;;;16.23;4.72;;;;;;;17.80;55.33;94528.41;5022860;28;20073;-78
2022/05/24 03:40:31;;;;;;;13.07;4.43;;;;;;;17.84;55.16;94529.41;4987951;28;20053;-77
2022/05/24 03:42:56;;;;;;;14.32;4.80;;;;;;;17.91;55.21;94529.06;5005573;28;20040;-78
2022/05/24 03:45:22;;;;;;;15.77;4.75;;;;;;;17.96;54.85;94526.38;5034968;28;20038;-78
2022/05/24 03:47:47;;;;;;;16.33;4.18;;;;;;;18.03;54.70;94526.78;5027961;28;20097;-78
2022/05/24 03:50:12;;;;;;;11.00;4.95;;;;;;;18.12;54.65;94519.03;5001752;28;20034;-79
2022/05/24 03:52:38;;;;;;;9.32;5.28;;;;;;;18.20;54.40;94527.06;5015579;28;20041;-78
2022/05/24 03:55:04;;;;;;;8.45;4.65;;;;;;;18.35;54.05;94520.78;5012359;28;20030;-78
2022/05/24 04:00:14;;;;;;;16.65;5.30;;;;;;;18.63;52.91;94528.78;5009986;28;20405;-78
2022/05/24 04:02:40;;;;;;;8.80;6.00;;;;;;;18.69;52.85;94538.19;5024776;28;20517;-78
2022/05/24 04:05:06;;;;;;;17.60;5.35;;;;;;;18.99;52.27;94542.94;5029837;28;20033;-78
2022/05/24 04:07:31;;;;;;;9.00;4.75;;;;;;;19.24;51.33;94538.28;5016903;28;20034;-78
2022/05/24 04:09:57;;;;;;;13.73;5.60;;;;;;;19.43;50.83;94544.25;5013024;28;20038;-78
2022/05/24 04:12:23;;;;;;;6.85;3.85;;;;;;;19.65;50.14;94543.56;5014163;28;20060;-78
2022/05/24 04:14:48;;;;;;;4.38;3.95;;;;;;;19.75;49.49;94549.41;4997292;28;20486;-78
2022/05/24 04:17:13;;;;;;;13.98;4.30;;;;;;;19.65;49.66;94554.91;5013224;28;20413;-78
2022/05/24 04:19:39;;;;;;;9.07;4.07;;;;;;;19.54;49.86;94540.38;5013202;28;20033;-79
2022/05/24 04:22:04;;;;;;;11.40;4.07;;;;;;;19.61;49.60;94543.38;5015037;28;20022;-78
2022/05/24 04:24:30;;;;;;;17.05;4.35;;;;;;;19.82;49.25;94546.38;5031046;28;20092;-78
2022/05/24 04:26:55;;;;;;;16.85;4.40;;;;;;;20.20;48.40;94544.25;5019656;28;20034;-78
2022/05/24 04:29:21;;;;;;;21.67;3.45;;;;;;;20.78;47.34;94547.94;5029189;28;20028;-78
2022/05/24 04:31:46;;;;;;;13.05;4.35;;;;;;;20.89;46.43;94541.31;5013960;28;20034;-79
2022/05/24 04:34:12;;;;;;;7.40;4.45;;;;;;;21.32;45.48;94546.84;5013197;28;20034;-78
2022/05/24 04:36:37;;;;;;;12.25;6.10;;;;;;;21.53;44.74;94539.16;5012983;28;20030;-79
2022/05/24 04:39:03;;;;;;;15.73;4.50;;;;;;;22.28;43.18;94534.59;5014633;28;20040;-78
2022/05/24 04:44:12;;;;;;;28.35;4.40;;;;;;;25.37;36.38;94532.41;5000537;28;20137;-77
2022/05/24 04:49:22;;;;;;;6.95;3.70;;;;;;;27.45;32.53;94528.03;5013198;28;20041;-77
2022/05/24 04:51:48;;;;;;;10.88;3.65;;;;;;;28.79;30.54;94536.66;5011567;28;20073;-77
2022/05/24 04:54:13;;;;;;;7.45;3.92;;;;;;;29.82;28.95;94538.47;4995324;28;20476;-77
2022/05/24 04:56:39;;;;;;;13.40;3.55;;;;;;;31.04;27.09;94544.25;4987290;28;20034;-78
2022/05/24 04:59:04;;;;;;;17.52;3.88;;;;;;;32.29;25.01;94544.53;5012715;28;20088;-78
2022/05/24 05:01:30;;;;;;;6.00;3.33;;;;;;;31.77;25.54;94562.63;5013114;28;20033;-78
2022/05/24 05:03:55;;;;;;;9.18;3.45;;;;;;;31.36;26.03;94554.56;5011568;28;20105;-77
2022/05/24 05:06:20;;;;;;;8.32;3.33;;;;;;;32.20;24.91;94553.66;5010712;28;20041;-78
2022/05/24 05:08:46;;;;;;;8.70;3.58;;;;;;;32.73;24.48;94549.72;4994529;28;20037;-78
2022/05/24 05:11:12;;;;;;;12.38;3.30;;;;;;;32.90;24.17;94561.72;5002919;28;20069;-78
2022/05/24 05:13:37;;;;;;;11.70;3.63;;;;;;;33.51;23.24;94563.41;5011927;28;20037;-78
2022/05/24 05:16:03;;;;;;;12.75;3.58;;;;;;;33.07;23.27;94561.00;5012202;28;20408;-78
2022/05/24 05:18:29;;;;;;;16.55;3.47;;;;;;;32.71;23.31;94560.09;5011816;28;20394;-76
2022/05/24 05:20:54;;;;;;;10.85;3.50;;;;;;;31.11;25.65;94570.41;5012280;28;20042;-79
2022/05/24 05:23:20;;;;;;;18.05;3.72;;;;;;;30.55;26.41;94571.28;5011654;28;20049;-78
2022/05/24 05:25:49;;;;;;;7.88;3.90;;;;;;;29.71;27.41;94569.69;5012889;28;20036;-76
2022/05/24 05:28:15;;;;;;;14.88;4.25;;;;;;;29.36;28.16;94571.75;4979491;28;20034;-78
2022/05/24 05:33:25;;;;;;;13.63;3.47;;;;;;;31.31;25.94;94576.38;5013837;28;20421;-79
2022/05/24 05:35:51;;;;;;;9.10;4.25;;;;;;;31.76;25.15;94588.72;4997879;28;20097;-78
2022/05/24 05:38:16;;;;;;;9.20;3.50;;;;;;;32.93;23.41;94583.28;5029335;28;20116;-78
2022/05/24 05:40:42;;;;;;;10.30;3.20;;;;;;;34.51;22.08;94585.72;4995816;28;20513;-80
2022/05/24 05:43:10;;;;;;;7.72;3.00;;;;;;;36.02;20.63;94583.75;4994950;28;20049;-77
2022/05/24 05:45:35;;;;;;;7.03;2.80;;;;;;;37.32;19.08;94582.72;5011984;28;20045;-78
2022/05/24 05:48:01;;;;;;;11.55;2.70;;;;;;;38.33;17.61;94582.69;5011448;28;20030;-78
2022/05/24 05:50:27;;;;;;;6.53;2.97;;;;;;;38.46;17.34;94580.13;5012892;28;20112;-79
2022/05/24 05:52:53;;;;;;;10.02;3.42;;;;;;;38.52;17.37;94584.66;5004806;28;20037;-78
2022/05/24 05:55:21;;;;;;;6.60;3.13;;;;;;;39.10;16.63;94589.78;5030267;28;20045;-79
2022/05/24 05:57:47;;;;;;;6.32;2.88;;;;;;;38.00;17.41;94587.91;4985194;28;20042;-78
2022/05/24 06:00:13;;;;;;;9.25;3.15;;;;;;;38.39;17.47;94600.81;5013687;28;20033;-78
2022/05/24 06:02:39;;;;;;;10.50;3.33;;;;;;;39.11;16.87;94594.81;4980950;28;20030;-80
2022/05/24 06:05:05;;;;;;;6.65;2.40;;;;;;;39.97;15.75;94590.19;4997249;28;20042;-80
2022/05/24 06:07:30;;;;;;;11.23;3.25;;;;;;;40.55;15.19;94601.19;5012735;28;20034;-79
2022/05/24 06:09:56;;;;;;;10.48;3.00;;;;;;;41.34;14.96;94611.47;5013367;28;20030;-78
2022/05/24 06:12:21;;;;;;;13.43;2.83;;;;;;;41.77;14.67;94604.72;5013232;28;20030;-79
2022/05/24 06:14:47;;;;;;;13.30;2.78;;;;;;;42.13;14.24;94604.34;5019159;28;20057;-82
2022/05/24 06:17:12;;;;;;;7.78;3.30;;;;;;;42.30;14.09;94604.94;5020432;28;20088;-79
2022/05/24 06:19:38;;;;;;;7.60;2.67;;;;;;;42.62;13.71;94604.63;5024656;28;20058;-79
2022/05/24 06:22:04;;;;;;;5.35;2.45;;;;;;;42.30;14.30;94602.97;5034299;28;20069;-79
2022/05/24 06:24:29;;;;;;;5.65;2.45;;;;;;;41.83;14.71;94605.69;4989770;28;20134;-79
2022/05/24 06:26:56;;;;;;;5.30;2.80;;;;;;;41.60;14.48;94596.59;5013936;28;20030;-79
2022/05/24 06:29:22;;;;;;;5.53;3.25;;;;;;;41.69;14.22;94592.50;5013539;28;20108;-79
2022/05/24 06:31:48;;;;;;;13.43;3.00;;;;;;;41.64;14.52;94591.03;5012467;28;20466;-79
2022/05/24 06:34:13;;;;;;;5.97;2.97;;;;;;;41.60;14.15;94585.69;5010006;28;20049;-79
2022/05/24 06:36:39;;;;;;;11.88;3.38;;;;;;;41.38;14.32;94579.38;4977053;28;20282;-79
2022/05/24 06:39:04;;;;;;;10.77;3.22;;;;;;;40.91;15.22;94579.19;5012253;28;20049;-78
2022/05/24 06:41:30;;;;;;;10.90;2.80;;;;;;;41.20;14.98;94570.94;5011654;28;20038;-79
2022/05/24 06:43:55;;;;;;;12.50;3.38;;;;;;;41.01;14.71;94578.13;4996520;28;20033;-78
2022/05/24 06:46:21;;;;;;;10.75;2.70;;;;;;;40.38;15.16;94582.13;5011629;28;20026;-81
2022/05/24 06:48:50;;;;;;;9.88;3.58;;;;;;;40.25;15.66;94578.56;5012669;28;20033;-82
2022/05/24 06:51:19;;;;;;;15.65;3.40;;;;;;;39.93;16.03;94573.91;5039753;23;20045;-79
2022/05/24 06:53:46;;;;;;;8.23;3.35;;;;;;;39.50;16.51;94568.69;5030740;28;20950;-81
2022/05/24 06:56:13;;;;;;;10.95;3.40;;;;;;;38.83;16.83;94562.75;5030507;28;20116;-79
2022/05/24 06:58:39;;;;;;;7.90;3.55;;;;;;;37.91;17.36;94567.88;5029581;28;20537;-75
2022/05/24 07:03:50;;;;;;;15.10;3.72;;;;;;;36.95;19.04;94562.66;5030278;28;20425;-77
2022/05/24 07:06:16;;;;;;;17.80;4.55;;;;;;;36.62;19.21;94558.03;5028972;28;20506;-76
2022/05/24 07:08:45;;;;;;;26.40;4.55;;;;;;;36.26;19.50;94560.31;5012185;28;20026;-75
2022/05/24 07:11:11;;;;;;;13.50;4.47;;;;;;;35.74;20.00;94563.84;5045294;28;20422;-76
2022/05/24 07:13:36;;;;;;;9.52;3.50;;;;;;;35.30;20.68;94569.16;5012798;28;20033;-76
2022/05/24 07:16:02;;;;;;;14.15;4.25;;;;;;;34.95;21.19;94560.09;5028495;28;20551;-77
2022/05/24 07:18:27;;;;;;;9.68;4.10;;;;;;;34.66;21.00;94569.44;5028128;28;20037;-76
2022/05/24 07:20:53;;;;;;;8.43;4.15;;;;;;;34.23;21.83;94581.13;5029597;28;20390;-74
2022/05/24 07:23:20;;;;;;;9.27;3.95;;;;;;;33.88;22.36;94576.56;5028600;28;20025;-76
2022/05/24 07:25:46;;;;;;;9.20;4.22;;;;;;;33.42;22.81;94571.09;5028368;28;20030;-75
2022/05/24 07:28:12;;;;;;;12.95;4.38;;;;;;;33.27;23.20;94566.81;5029086;28;20029;-75
2022/05/24 07:30:38;;;;;;;17.95;4.78;;;;;;;33.07;23.36;94571.78;5003742;28;20041;-76
2022/05/24 07:33:04;;;;;;;19.50;4.28;;;;;;;32.88;23.49;94562.13;5003917;28;20051;-74
2022/05/24 07:35:30;;;;;;;13.00;4.30;;;;;;;32.69;23.67;94563.16;5029172;28;20470;-74
2022/05/24 07:37:55;;;;;;;16.33;4.63;;;;;;;32.55;24.16;94563.13;5028210;28;20021;-74
2022/05/24 07:45:51;;;;;;;13.70;4.43;;;;;;;32.17;25.17;94567.09;5028257;28;20127;-73
2022/05/24 07:48:17;;;;;;;10.40;3.90;;;;;;;31.97;25.23;94571.19;5043340;28;20033;-74
2022/05/24 07:50:43;;;;;;;5.03;3.28;;;;;;;31.74;26.03;94557.97;5026416;28;20118;-73
2022/05/24 07:53:08;;;;;;;4.88;3.47;;;;;;;31.60;26.26;94570.13;5028538;28;20473;-73
2022/05/24 07:55:37;;;;;;;17.48;4.05;;;;;;;31.36;26.08;94565.31;5027334;28;20052;-76
2022/05/24 07:58:03;;;;;;;9.10;4.43;;;;;;;31.27;26.26;94556.78;5027878;28;20034;-75
2022/05/24 08:00:29;;;;;;;14.18;4.18;;;;;;;30.82;27.39;94547.09;5011455;28;20045;-75
2022/05/24 08:02:54;;;;;;;10.77;4.35;;;;;;;30.61;27.39;94544.91;5029672;28;20063;-75
2022/05/24 08:05:21;;;;;;;9.30;4.13;;;;;;;30.50;28.13;94552.81;5044865;28;20505;-79
2022/05/24 08:07:49;;;;;;;10.35;3.85;;;;;;;30.61;28.33;94547.59;5010857;28;20041;-75
2022/05/24 08:10:15;;;;;;;19.55;5.00;;;;;;;30.66;27.63;94545.38;5027677;28;20048;-81
2022/05/24 08:12:43;;;;;;;12.30;4.22;;;;;;;30.66;28.31;94558.78;5029103;28;20065;-78
2022/05/24 08:15:10;;;;;;;9.65;3.58;;;;;;;30.65;27.86;94559.16;5029040;28;20128;-76
2022/05/24 08:17:36;;;;;;;11.82;3.80;;;;;;;30.23;28.25;94560.13;5027071;28;20037;-78
2022/05/24 08:20:01;;;;;;;10.30;4.40;;;;;;;30.05;28.38;94559.09;5013001;28;20030;-75
2022/05/24 08:22:27;;;;;;;12.88;3.78;;;;;;;30.09;28.54;94559.91;5027418;28;20036;-78
2022/05/24 08:24:52;;;;;;;13.65;4.40;;;;;;;29.94;28.69;94556.25;5028886;28;20125;-73
2022/05/24 08:27:18;;;;;;;15.32;5.43;;;;;;;29.45;29.74;94548.97;5035889;28;20030;-78
2022/05/24 08:29:44;;;;;;;9.43;3.97;;;;;;;29.43;29.77;94550.44;5042116;28;20045;-76
2022/05/24 08:32:10;;;;;;;14.80;4.82;;;;;;;28.96;30.77;94549.66;5026442;28;20607;-76
2022/05/24 08:34:35;;;;;;;10.68;4.63;;;;;;;28.98;30.98;94546.63;5025373;28;20172;-76
2022/05/24 08:37:01;;;;;;;15.73;4.40;;;;;;;28.78;30.75;94550.38;5026031;28;20041;-77
2022/05/24 08:39:27;;;;;;;8.45;4.40;;;;;;;28.81;31.13;94542.44;4993136;28;20811;-78
2022/05/24 08:42:11;;;;;;;18.52;4.78;;;;;;;29.01;30.90;94551.25;5044838;28;20493;-78
2022/05/24 08:50:11;;;;;;;13.55;4.18;;;;;;;29.31;31.01;94556.00;5086581;22;20057;-77
2022/05/24 08:52:44;;;;;;;12.65;4.72;;;;;;;29.14;30.80;94546.50;5031162;28;20038;-77
2022/05/24 08:55:10;;;;;;;9.27;4.75;;;;;;;28.91;31.38;94551.81;5037711;28;20093;-80
2022/05/24 08:57:42;;;;;;;13.88;4.80;;;;;;;28.11;32.68;94548.63;5008335;28;20053;-79
2022/05/24 09:00:11;;;;;;;15.68;8.80;;;;;;;27.96;32.81;94554.78;5042298;28;20112;-78
2022/05/24 09:02:37;;;;;;;5.43;4.93;;;;;;;28.13;33.74;94558.22;5023678;28;20029;-80
2022/05/24 09:05:02;;;;;;;6.32;4.30;;;;;;;28.31;33.10;94554.03;5005900;28;20032;-76
2022/05/24 09:07:44;;;;;;;11.15;5.28;;;;;;;28.06;32.91;94556.94;5004500;28;20037;-76
2022/05/24 09:10:12;;;;;;;;;;;;;;;27.89;33.32;94551.19;5045722;28;20041;-76
2022/05/24 09:13:16;;;;;;;10.65;5.38;;;;;;;27.60;33.88;94537.16;5022057;28;20316;-75
2022/05/24 09:16:19;;;;;;;10.60;4.35;;;;;;;27.63;33.89;94541.03;5032293;28;20660;-75
2022/05/24 09:18:58;;;;;;;18.60;5.10;;;;;;;27.74;33.90;94528.72;5019677;28;20037;-75
2022/05/24 09:21:26;;;;;;;12.68;5.10;;;;;;;27.50;34.07;94535.78;5002606;28;20025;-77
2022/05/24 09:24:19;;;;;;;14.82;5.03;;;;;;;27.42;34.82;94531.38;5005033;28;20509;-75
2022/05/24 09:27:01;;;;;;;14.65;7.53;;;;;;;27.67;34.54;94528.56;5037538;28;20033;-75
2022/05/24 09:29:27;;;;;;;8.10;4.60;;;;;;;27.79;34.63;94517.75;5020460;28;20494;-76
2022/05/24 09:31:52;;;;;;;19.92;5.35;;;;;;;27.60;34.94;94520.34;5021542;28;20034;-77
2022/05/24 09:34:17;;;;;;;16.13;5.93;;;;;;;27.66;34.87;94521.66;5003457;28;20033;-77
2022/05/24 09:36:52;;;;;;;12.25;6.03;;;;;;;27.73;34.59;94533.28;5038401;28;20587;-77
2022/05/24 09:39:30;;;;;;;20.27;6.53;;;;;;;27.78;34.64;94540.25;5019406;28;20044;-77
2022/05/24 09:41:57;;;;;;;24.15;5.38;;;;;;;27.73;34.44;94541.31;5003902;28;20108;-77
2022/05/24 09:44:23;;;;;;;10.82;4.85;;;;;;;27.30;35.03;94530.69;5002216;28;20025;-76
2022/05/24 09:46:49;;;;;;;13.13;5.07;;;;;;;27.07;35.51;94538.53;5019194;28;20088;-76
2022/05/24 09:49:17;;;;;;;9.63;5.35;;;;;;;26.82;36.01;94537.84;5002930;28;20034;-76
2022/05/24 09:51:42;;;;;;;11.00;4.63;;;;;;;27.06;35.73;94527.06;5020146;28;20108;-76
2022/05/24 09:54:16;;;;;;;8.60;5.40;;;;;;;27.29;35.43;94523.81;5003778;28;20107;-75
2022/05/24 09:56:44;;;;;;;15.10;5.85;;;;;;;27.34;35.54;94516.34;5003595;28;20045;-76
2022/05/24 09:59:26;;;;;;;8.32;5.30;;;;;;;27.24;35.63;94516.84;5003543;28;20030;-75
2022/05/24 10:01:53;;;;;;;10.50;5.35;;;;;;;27.24;35.31;94511.50;5027549;28;20049;-76
2022/05/24 10:04:27;;;;;;;13.48;5.13;;;;;;;27.12;35.77;94515.00;5018693;28;20114;-76
2022/05/24 10:06:59;;;;;;;19.35;5.20;;;;;;;27.03;36.85;94521.66;5019061;28;20036;-76
2022/05/24 10:09:44;;;;;;;17.60;5.75;;;;;;;26.77;36.59;94520.19;5036050;28;20665;-76
2022/05/24 10:12:32;;;;;;;13.45;4.85;;;;;;;26.70;37.27;94517.34;5020452;28;20164;-77
2022/05/24 10:15:00;;;;;;;12.88;5.00;;;;;;;26.78;37.01;94519.06;5039147;28;20103;-76
2022/05/24 10:17:56;;;;;;;14.98;5.60;;;;;;;26.55;37.57;94523.41;5020474;28;20041;-77
2022/05/24 10:20:50;;;;;;;9.20;4.82;;;;;;;26.82;37.08;94517.25;5020015;28;20410;-77
2022/05/24 10:23:21;;;;;;;13.43;4.88;;;;;;;27.07;36.62;94523.28;5031311;28;20500;-77
2022/05/24 10:26:08;;;;;;;7.57;4.90;;;;;;;27.15;36.29;94510.88;5020025;28;20034;-77
2022/05/24 10:28:37;;;;;;;19.80;6.28;;;;;;;27.22;36.05;94503.06;5020576;28;20066;-76
2022/05/24 10:31:32;;;;;;;13.15;4.70;;;;;;;27.35;35.75;94507.19;5019405;28;20038;-76
2022/05/24 10:38:17;;;;;;;10.43;5.40;;;;;;;27.46;36.06;94497.53;5004927;28;20060;-76
2022/05/24 10:40:09;;;;;;;10.70;5.75;;;;;;;27.42;35.70;94488.66;5020494;28;20052;-76
2022/05/24 10:43:04;;;;;;;14.52;5.25;;;;;;;27.42;35.96;94491.34;5020696;28;20040;-76
2022/05/24 10:45:49;;;;;;;15.32;5.65;;;;;;;27.28;36.36;94491.00;5020141;28;20022;-78
2022/05/24 10:48:18;;;;;;;14.15;5.15;;;;;;;27.26;36.80;94482.56;5018322;28;20061;-79
2022/05/24 10:50:51;;;;;;;12.23;5.55;;;;;;;27.09;36.66;94482.91;4988526;28;20126;-75
2022/05/24 10:53:44;;;;;;;11.30;5.80;;;;;;;27.12;36.56;94476.88;5003108;28;20041;-75
2022/05/24 10:56:18;;;;;;;;;;;;;;;27.15;36.46;94486.84;5005218;28;20120;-75
2022/05/24 10:58:43;;;;;;;12.25;5.63;;;;;;;26.86;37.20;94488.81;5035230;28;19996;-75
2022/05/24 11:01:43;;;;;;;19.33;6.07;;;;;;;26.98;37.88;94487.16;5002526;28;20446;-76
2022/05/24 11:04:13;;;;;;;10.93;6.00;;;;;;;26.80;37.63;94476.03;5024177;28;20030;-75
2022/05/24 11:06:48;;;;;;;24.58;5.45;;;;;;;26.73;37.87;94481.97;5011597;28;20100;-75
2022/05/24 11:09:21;;;;;;;15.32;6.35;;;;;;;26.77;37.62;94479.41;5035801;28;20567;-76
2022/05/24 11:12:26;;;;;;;15.35;6.10;;;;;;;26.67;37.83;94467.31;4986614;28;20033;-79
2022/05/24 11:15:04;;;;;;;15.13;5.22;;;;;;;26.70;37.90;94477.34;5018522;28;20520;-81
2022/05/24 11:17:30;;;;;;;12.23;5.97;;;;;;;26.77;37.71;94466.84;5006679;28;20536;-78
2022/05/24 11:19:56;;;;;;;16.38;5.45;;;;;;;26.78;38.08;94459.59;5039761;28;20033;-77
2022/05/24 11:22:35;;;;;;;23.05;6.40;;;;;;;26.78;37.88;94441.72;5021585;28;20068;-76
2022/05/24 11:25:19;;;;;;;16.70;5.70;;;;;;;26.72;38.73;94451.09;5020606;28;20081;-77
2022/05/24 11:27:56;;;;;;;13.63;5.70;;;;;;;26.86;38.30;94456.78;5022713;28;20100;-77
2022/05/24 11:30:32;;;;;;;33.90;20.52;;;;;;;26.83;38.71;94443.34;5026976;28;20033;-78
2022/05/24 11:33:05;;;;;;;29.33;17.35;;;;;;;26.88;38.36;94435.88;5019005;28;20425;-75
2022/05/24 11:35:36;;;;;;;14.95;6.35;;;;;;;26.98;38.88;94428.47;5017610;28;20087;-75
2022/05/24 11:38:28;;;;;;;11.00;5.50;;;;;;;27.23;37.83;94434.44;5018576;28;20082;-77
2022/05/24 11:41:09;;;;;;;13.23;5.90;;;;;;;27.35;37.70;94416.41;5028035;28;20050;-77
2022/05/24 11:43:43;;;;;;;10.20;5.47;;;;;;;27.47;37.09;94416.28;5034617;28;20352;-77
2022/05/24 11:46:28;;;;;;;18.17;5.85;;;;;;;27.56;37.00;94418.78;5035413;28;20022;-76
2022/05/24 11:48:54;;;;;;;19.95;5.07;;;;;;;27.67;36.40;94403.03;5041084;28;20046;-75
2022/05/24 11:51:36;;;;;;;13.75;5.63;;;;;;;27.75;36.49;94402.03;5035101;28;20116;-76
2022/05/24 11:54:03;;;;;;;;;;;;;;;27.83;36.70;94397.63;5018660;28;20030;-75
2022/05/24 11:56:29;;;;;;;11.38;5.63;;;;;;;27.83;36.33;94392.28;5035077;28;19928;-78
2022/05/24 11:59:03;;;;;;;11.88;6.40;;;;;;;27.90;36.27;94398.53;4986942;28;20486;-76
2022/05/24 12:01:38;;;;;;;7.30;5.43;;;;;;;28.02;36.35;94385.03;5034404;28;20125;-77
2022/05/24 12:09:58;;;;;;;8.45;5.40;;;;;;;28.54;35.23;94378.38;5035241;28;20106;-80
2022/05/24 12:13:03;;;;;;;13.40;5.60;;;;;;;28.75;34.91;94377.94;5022532;28;20090;-78
2022/05/24 12:15:31;;;;;;;8.88;5.93;;;;;;;28.83;34.90;94373.50;5016947;28;20509;-77
2022/05/24 12:17:57;;;;;;;13.82;5.82;;;;;;;28.94;34.75;94374.44;5019011;28;20065;-79
2022/05/24 12:20:32;;;;;;;11.30;5.38;;;;;;;28.94;34.88;94369.09;5022192;28;20084;-75
2022/05/24 12:23:04;;;;;;;11.35;5.68;;;;;;;28.94;35.26;94371.75;5024175;28;20828;-77